createdAt,value
2018-12-22T00:00:01.778Z,97874.14
2018-12-22T00:05:09.084Z,97888.80
2018-12-22T00:10:14.704Z,97896.03
2018-12-22T00:15:19.608Z,97895.31
2018-12-22T00:20:24.467Z,97903.05
2018-12-22T00:25:29.964Z,97895.85
2018-12-22T00:30:34.901Z,97887.27
2018-12-22T00:35:39.923Z,97889.74
2018-12-22T00:40:45.273Z,97920.05
2018-12-22T00:45:50.261Z,97908.59
2018-12-22T00:50:55.186Z,97920.70
2018-12-22T00:56:00.216Z,97937.33
2018-12-22T01:01:05.322Z,97924.66
2018-12-22T01:06:10.465Z,97933.52
2018-12-22T01:11:16.321Z,97941.20
2018-12-22T01:16:21.596Z,97936.45
2018-12-22T01:21:26.603Z,97945.16
2018-12-22T01:26:32.011Z,97959.98
2018-12-22T01:31:37.094Z,97944.98
2018-12-22T01:36:41.933Z,97970.05
2018-12-22T01:41:49.512Z,97961.68
2018-12-22T01:46:54.447Z,97953.73
2018-12-22T01:51:59.567Z,97957.97
2018-12-22T01:57:04.708Z,97973.79
2018-12-22T02:02:09.992Z,97961.50
2018-12-22T02:07:14.806Z,97965.78
2018-12-22T02:12:19.639Z,97967.11
2018-12-22T02:17:24.537Z,97977.91
2018-12-22T02:22:29.397Z,97973.87
2018-12-22T02:27:34.244Z,97962.95
2018-12-22T02:32:39.315Z,97970.53
2018-12-22T02:37:44.231Z,97961.27
2018-12-22T02:42:49.089Z,97970.88
2018-12-22T02:47:54.206Z,97965.98
2018-12-22T02:52:59.548Z,97967.15
2018-12-22T02:58:04.496Z,97976.89
2018-12-22T03:03:09.255Z,97975.08
2018-12-22T03:08:14.085Z,97983.66
2018-12-22T03:13:19.119Z,97968.49
2018-12-22T03:18:23.923Z,97975.23
2018-12-22T03:23:28.789Z,97970.19
2018-12-22T03:28:33.878Z,97964.11
2018-12-22T03:33:38.667Z,97969.25
2018-12-22T03:38:43.846Z,97975.75
2018-12-22T03:43:48.800Z,97977.95
2018-12-22T03:48:53.593Z,98005.87
2018-12-22T03:53:58.459Z,98006.65
2018-12-22T03:59:03.711Z,98021.19
2018-12-22T04:04:10.365Z,98022.20
2018-12-22T04:09:15.674Z,98033.91
2018-12-22T04:14:20.475Z,98034.34
2018-12-22T04:19:25.398Z,98040.15
2018-12-22T04:24:30.579Z,98038.78
2018-12-22T04:29:35.434Z,98050.19
2018-12-22T04:34:40.651Z,98057.44
2018-12-22T04:39:45.644Z,98060.62
2018-12-22T04:44:50.778Z,98062.00
2018-12-22T04:49:55.990Z,98051.97
2018-12-22T04:55:01.003Z,98047.07
2018-12-22T05:00:07.631Z,98043.86
2018-12-22T05:05:12.783Z,98051.37
2018-12-22T05:10:18.248Z,98050.59
2018-12-22T05:15:24.377Z,98053.45
2018-12-22T05:20:29.324Z,98049.17
2018-12-22T05:25:34.266Z,98061.52
2018-12-22T05:30:39.226Z,98059.09
2018-12-22T05:35:44.415Z,98072.28
2018-12-22T05:40:49.534Z,98068.36
2018-12-22T05:45:54.719Z,98064.63
2018-12-22T05:51:00.816Z,98072.56
2018-12-22T05:56:06.427Z,98080.28
2018-12-22T06:01:11.376Z,98077.05
2018-12-22T06:06:16.585Z,98095.53
2018-12-22T06:11:21.397Z,98078.98
2018-12-22T06:16:26.201Z,98087.79
2018-12-22T06:21:30.964Z,98086.80
2018-12-22T06:26:35.841Z,98083.22
2018-12-22T06:31:40.646Z,98084.52
2018-12-22T06:36:45.633Z,98072.23
2018-12-22T06:41:50.564Z,98077.30
2018-12-22T06:46:55.406Z,98090.58
2018-12-22T06:52:00.241Z,98079.54
2018-12-22T07:02:15.873Z,98081.62
2018-12-22T07:07:21.699Z,98084.86
2018-12-22T07:12:26.531Z,98085.01
2018-12-22T07:17:31.512Z,98090.97
2018-12-22T07:22:36.445Z,98088.93
2018-12-22T07:27:41.749Z,98082.47
2018-12-22T07:32:47.375Z,98083.41
2018-12-22T07:37:52.134Z,98080.93
2018-12-22T07:42:56.944Z,98079.05
2018-12-22T07:48:03.435Z,98079.98
2018-12-22T07:53:08.444Z,98067.86
2018-12-22T07:58:13.400Z,98074.32
2018-12-22T08:03:18.339Z,98087.45
2018-12-22T08:08:23.758Z,98067.05
2018-12-22T08:13:29.105Z,98059.75
2018-12-22T08:18:34.031Z,98063.40
2018-12-22T08:23:38.875Z,98051.44
2018-12-22T08:28:43.714Z,98065.55
2018-12-22T08:33:48.712Z,98061.72
2018-12-22T08:38:53.765Z,98063.16
2018-12-22T08:43:59.782Z,98064.13
2018-12-22T08:49:05.836Z,98063.52
2018-12-22T08:54:10.742Z,98058.84
2018-12-22T08:59:16.570Z,98054.11
2018-12-22T09:04:22.144Z,98055.01
2018-12-22T09:09:27.313Z,98053.52
2018-12-22T09:14:32.419Z,98058.43
2018-12-22T09:19:37.271Z,98053.22
2018-12-22T09:24:42.060Z,98049.45
2018-12-22T09:29:47.037Z,98040.20
2018-12-22T09:34:51.916Z,98044.11
2018-12-22T09:39:57.036Z,98031.91
2018-12-22T09:45:05.731Z,98027.05
2018-12-22T09:50:13.946Z,98012.80
2018-12-22T09:55:18.878Z,98004.62
2018-12-22T10:00:24.336Z,98003.95
2018-12-22T10:05:29.357Z,97984.46
2018-12-22T10:10:34.363Z,98001.95
2018-12-22T10:15:39.457Z,98002.67
2018-12-22T10:20:45.086Z,98009.20
2018-12-22T10:25:50.142Z,98009.25
2018-12-22T10:30:55.001Z,98024.30
2018-12-22T10:35:59.999Z,98021.80
2018-12-22T10:41:05.479Z,98044.97
2018-12-22T10:46:11.443Z,98052.78
2018-12-22T10:51:24.297Z,98059.27
2018-12-22T10:56:27.964Z,98067.40
2018-12-22T11:04:52.156Z,98113.62
2018-12-22T11:09:57.015Z,98118.30
2018-12-22T11:15:02.926Z,98146.08
2018-12-22T11:20:08.972Z,98140.32
2018-12-22T11:25:20.041Z,98159.24
2018-12-22T11:30:27.646Z,98183.21
2018-12-22T11:35:32.892Z,98191.37
2018-12-22T11:40:38.330Z,98198.64
2018-12-22T11:45:43.194Z,98218.27
2018-12-22T11:50:48.131Z,98251.74
2018-12-22T11:55:53.753Z,98258.03
2018-12-22T12:00:58.613Z,98278.36
2018-12-22T12:06:04.328Z,98290.81
2018-12-22T12:11:09.772Z,98303.23
2018-12-22T12:16:40.361Z,98312.81
2018-12-22T12:21:45.965Z,98320.97
2018-12-22T12:26:50.882Z,98338.43
2018-12-22T12:31:56.325Z,98339.41
2018-12-22T12:37:02.628Z,98359.00
2018-12-22T12:42:07.558Z,98368.26
2018-12-22T12:47:13.558Z,98392.53
2018-12-22T12:52:19.011Z,98416.29
2018-12-22T12:57:24.699Z,98426.89
2018-12-22T13:02:30.196Z,98445.97
2018-12-22T13:07:35.717Z,98451.53
2018-12-22T13:12:55.123Z,98474.98
2018-12-22T13:18:00.071Z,98490.05
2018-12-22T13:23:06.544Z,98505.48
2018-12-22T13:28:12.303Z,98501.22
2018-12-22T13:33:17.449Z,98528.34
2018-12-22T13:38:22.993Z,98548.16
2018-12-22T13:43:28.021Z,98550.73
2018-12-22T13:48:32.894Z,98562.55
2018-12-22T13:58:55.095Z,98586.86
2018-12-22T14:04:00.251Z,98605.81
2018-12-22T14:09:07.610Z,98614.83
2018-12-22T14:14:18.284Z,98620.66
2018-12-22T14:19:23.650Z,98636.98
2018-12-22T14:24:35.967Z,98654.14
2018-12-22T14:29:40.828Z,98668.09
2018-12-22T14:34:54.962Z,98683.55
2018-12-22T14:39:59.788Z,98687.14
2018-12-22T14:45:06.812Z,98699.72
2018-12-22T14:50:12.930Z,98708.35
2018-12-22T14:55:18.159Z,98720.63
2018-12-22T15:00:23.520Z,98732.44
2018-12-22T15:05:30.400Z,98742.22
2018-12-22T15:10:36.196Z,98754.45
2018-12-22T15:15:41.109Z,98761.28
2018-12-22T15:20:46.400Z,98768.97
2018-12-22T15:25:51.634Z,98779.31
2018-12-22T15:30:56.958Z,98788.42
2018-12-22T15:36:02.381Z,98797.51
2018-12-22T15:41:07.773Z,98806.37
2018-12-22T15:46:13.601Z,98817.31
2018-12-22T15:51:18.571Z,98832.80
2018-12-22T15:56:23.648Z,98828.73
2018-12-22T16:01:28.747Z,98827.25
2018-12-22T16:06:34.007Z,98824.97
2018-12-22T16:11:39.468Z,98827.28
2018-12-22T16:16:44.525Z,98837.52
2018-12-22T16:21:49.652Z,98825.94
2018-12-22T16:26:54.887Z,98833.59
2018-12-22T16:31:59.972Z,98848.97
2018-12-22T16:37:06.836Z,98840.99
2018-12-22T16:42:11.806Z,98837.66
2018-12-22T16:47:17.055Z,98857.48
2018-12-22T16:52:22.410Z,98862.67
2018-12-22T16:57:28.587Z,98868.72
2018-12-22T17:02:58.544Z,98871.44
2018-12-22T17:08:05.813Z,98879.27
2018-12-22T17:13:12.733Z,98885.69
2018-12-22T17:18:18.352Z,98892.38
2018-12-22T17:23:33.149Z,98901.76
2018-12-22T17:28:38.105Z,98888.55
2018-12-22T17:33:43.576Z,98882.64
2018-12-22T17:38:48.603Z,98893.38
2018-12-22T17:43:55.202Z,98882.60
2018-12-22T17:49:00.871Z,98890.79
2018-12-22T17:54:07.023Z,98891.52
2018-12-22T17:59:12.992Z,98886.40
2018-12-22T18:04:17.925Z,98902.39
2018-12-22T18:09:23.050Z,98902.59
2018-12-22T18:14:28.099Z,98901.98
2018-12-22T18:19:35.488Z,98888.33
2018-12-22T18:24:40.599Z,98893.81
2018-12-22T18:29:45.888Z,98885.18
2018-12-22T18:34:50.849Z,98894.93
2018-12-22T18:39:56.090Z,98888.63
2018-12-22T18:45:00.998Z,98884.35
2018-12-22T18:50:12.968Z,98887.89
2018-12-22T18:55:18.902Z,98895.98
2018-12-22T19:00:25.014Z,98892.23
2018-12-22T19:05:29.973Z,98907.33
2018-12-22T19:10:39.631Z,98895.14
2018-12-22T19:15:47.980Z,98907.19
2018-12-22T19:20:54.820Z,98915.78
2018-12-22T19:25:59.823Z,98919.99
2018-12-22T19:31:06.142Z,98930.70
2018-12-22T19:36:11.649Z,98921.41
2018-12-22T19:41:18.714Z,98909.13
2018-12-22T19:46:23.981Z,98920.27
2018-12-22T19:51:29.834Z,98928.06
2018-12-22T19:56:35.266Z,98918.45
2018-12-22T20:01:40.211Z,98912.67
2018-12-22T20:06:45.229Z,98915.70
2018-12-22T20:11:50.302Z,98927.58
2018-12-22T20:16:56.201Z,98926.19
2018-12-22T20:22:01.441Z,98940.30
2018-12-22T20:27:07.525Z,98939.53
2018-12-22T20:32:13.598Z,98935.75
2018-12-22T20:37:19.247Z,98934.50
2018-12-22T20:42:24.925Z,98940.78
2018-12-22T20:47:30.910Z,98932.88
2018-12-22T20:52:37.516Z,98934.02
2018-12-22T20:57:43.708Z,98943.94
2018-12-22T21:02:49.159Z,98945.03
2018-12-22T21:07:55.278Z,98953.48
2018-12-22T21:13:01.162Z,98950.30
2018-12-22T21:18:07.159Z,98949.58
2018-12-22T21:23:13.170Z,98955.80
2018-12-22T21:28:19.362Z,98959.56
2018-12-22T21:33:25.261Z,98971.20
2018-12-22T21:38:30.274Z,98974.55
2018-12-22T21:43:36.085Z,98988.00
2018-12-22T21:53:52.303Z,98986.97
2018-12-22T21:58:57.457Z,98980.89
2018-12-22T22:04:03.425Z,98999.02
2018-12-22T22:09:08.624Z,99004.44
2018-12-22T22:14:20.107Z,99010.05
2018-12-22T22:19:25.224Z,98998.16
2018-12-22T22:24:30.628Z,99003.05
2018-12-22T22:29:36.197Z,99004.46
2018-12-22T22:34:45.610Z,99009.70
2018-12-22T22:39:48.824Z,99021.27
2018-12-22T22:44:53.791Z,99033.94
2018-12-22T22:49:59.472Z,99032.77
2018-12-22T22:55:07.043Z,99039.43
2018-12-22T23:00:42.996Z,99049.06
2018-12-22T23:05:47.883Z,99058.94
2018-12-22T23:10:52.899Z,99061.09
2018-12-22T23:15:58.561Z,99056.13
2018-12-22T23:21:04.655Z,99056.97
2018-12-22T23:26:09.920Z,99062.67
2018-12-22T23:31:14.820Z,99067.22
2018-12-22T23:36:19.844Z,99069.05
2018-12-22T23:41:25.046Z,99075.02
2018-12-22T23:46:29.893Z,99078.07
2018-12-22T23:57:08.246Z,99084.41
